Aviation Digital Data Service (ADDS)

Output produced by METARs form (0728 UTC 24 March 2019)
found at http://www.aviationweather.gov/metar/data/
 
SMJP 240700Z VRB01KT 9999 FEW030 24/23 Q1013 NOSIG
TAF SMJP 240400Z 2406/2506 VRB02KT CAVOK TX32/2418Z TN22/2409Z 
     PROB30 
     TEMPO 2408/2410 00000KT 4000 BR SCT002 
     BECMG 2411/2413 07010KT SCT020 
     FM242200 04005KT CAVOK